sensor_id;sensor_type;location;lat;lon;timestamp;pressure;altitude;pressure_sealevel;temperature;humidity
56681;BME280;42558;52.388;13.390;2023-06-19T00:02:11;100911.84;;;15.17;100.00
56681;BME280;42558;52.388;13.390;2023-06-19T00:04:40;100909.91;;;15.15;100.00
56681;BME280;42558;52.388;13.390;2023-06-19T00:07:08;100908.85;;;15.14;100.00
56681;BME280;42558;52.388;13.390;2023-06-19T00:09:36;100914.34;;;15.14;100.00
56681;BME280;42558;52.388;13.390;2023-06-19T00:12:05;100915.03;;;15.15;100.00
56681;BME280;42558;52.388;13.390;2023-06-19T00:14:33;100915.92;;;15.20;100.00
56681;BME280;42558;52.388;13.390;2023-06-19T00:17:04;100916.80;;;15.21;100.00
56681;BME280;42558;52.388;13.390;2023-06-19T00:19:33;100916.27;;;15.21;100.00
56681;BME280;42558;52.388;13.390;2023-06-19T00:22:06;100915.02;;;15.23;100.00
56681;BME280;42558;52.388;13.390;2023-06-19T00:24:36;100910.41;;;15.25;100.00
56681;BME280;42558;52.388;13.390;2023-06-19T00:27:06;100905.62;;;15.28;100.00
56681;BME280;42558;52.388;13.390;2023-06-19T00:29:36;100908.25;;;15.31;100.00
56681;BME280;42558;52.388;13.390;2023-06-19T00:32:07;100905.23;;;15.34;100.00
56681;BME280;42558;52.388;13.390;2023-06-19T00:34:37;100910.89;;;15.38;100.00
56681;BME280;42558;52.388;13.390;2023-06-19T00:37:06;100908.77;;;15.40;100.00
56681;BME280;42558;52.388;13.390;2023-06-19T00:39:36;100906.96;;;15.44;100.00
56681;BME280;42558;52.388;13.390;2023-06-19T00:42:05;100905.90;;;15.47;100.00
56681;BME280;42558;52.388;13.390;2023-06-19T00:44:36;100906.06;;;15.49;100.00
56681;BME280;42558;52.388;13.390;2023-06-19T00:47:06;100908.37;;;15.52;100.00
56681;BME280;42558;52.388;13.390;2023-06-19T00:49:36;100907.30;;;15.52;100.00
56681;BME280;42558;52.388;13.390;2023-06-19T00:52:06;100912.05;;;15.56;100.00
56681;BME280;42558;52.388;13.390;2023-06-19T00:54:36;100912.41;;;15.58;100.00
56681;BME280;42558;52.388;13.390;2023-06-19T00:57:07;100915.95;;;15.60;100.00
56681;BME280;42558;52.388;13.390;2023-06-19T00:59:38;100914.00;;;15.60;100.00
56681;BME280;42558;52.388;13.390;2023-06-19T01:02:08;100910.11;;;15.59;100.00
56681;BME280;42558;52.388;13.390;2023-06-19T01:04:35;100904.78;;;15.58;100.00
56681;BME280;42558;52.388;13.390;2023-06-19T01:07:11;100903.55;;;15.56;100.00
56681;BME280;42558;52.388;13.390;2023-06-19T01:09:53;100900.91;;;15.55;100.00
56681;BME280;42558;52.388;13.390;2023-06-19T01:12:36;100897.38;;;15.51;100.00
56681;BME280;42558;52.388;13.390;2023-06-19T01:15:08;100897.20;;;15.51;100.00
56681;BME280;42558;52.388;13.390;2023-06-19T01:17:36;100900.04;;;15.52;100.00
56681;BME280;42558;52.388;13.390;2023-06-19T01:20:07;100896.85;;;15.50;100.00
56681;BME280;42558;52.388;13.390;2023-06-19T01:22:38;100894.90;;;15.49;100.00
56681;BME280;42558;52.388;13.390;2023-06-19T01:25:08;100893.30;;;15.49;100.00
56681;BME280;42558;52.388;13.390;2023-06-19T01:27:37;100894.73;;;15.46;100.00
56681;BME280;42558;52.388;13.390;2023-06-19T01:30:11;100892.80;;;15.41;100.00
56681;BME280;42558;52.388;13.390;2023-06-19T01:33:23;100892.11;;;15.36;100.00
56681;BME280;42558;52.388;13.390;2023-06-19T01:35:57;100892.32;;;15.32;100.00
56681;BME280;42558;52.388;13.390;2023-06-19T01:38:29;100888.09;;;15.27;100.00
56681;BME280;42558;52.388;13.390;2023-06-19T01:41:02;100891.46;;;15.25;100.00
56681;BME280;42558;52.388;13.390;2023-06-19T01:43:33;100888.98;;;15.21;100.00
56681;BME280;42558;52.388;13.390;2023-06-19T01:46:04;100886.17;;;15.16;100.00
56681;BME280;42558;52.388;13.390;2023-06-19T01:48:32;100877.84;;;15.16;100.00
56681;BME280;42558;52.388;13.390;2023-06-19T01:51:04;100876.23;;;15.21;100.00
56681;BME280;42558;52.388;13.390;2023-06-19T01:53:34;100874.10;;;15.22;100.00
56681;BME280;42558;52.388;13.390;2023-06-19T01:56:05;100869.50;;;15.21;100.00
56681;BME280;42558;52.388;13.390;2023-06-19T01:58:35;100870.05;;;15.20;100.00
56681;BME280;42558;52.388;13.390;2023-06-19T02:01:05;100865.61;;;15.19;100.00
56681;BME280;42558;52.388;13.390;2023-06-19T02:03:34;100862.78;;;15.18;100.00
56681;BME280;42558;52.388;13.390;2023-06-19T02:06:05;100857.83;;;15.16;100.00
56681;BME280;42558;52.388;13.390;2023-06-19T02:08:35;100859.09;;;15.13;100.00
56681;BME280;42558;52.388;13.390;2023-06-19T02:11:05;100853.41;;;15.13;100.00
56681;BME280;42558;52.388;13.390;2023-06-19T02:13:35;100853.08;;;15.11;100.00
56681;BME280;42558;52.388;13.390;2023-06-19T02:16:08;100852.36;;;15.10;100.00
56681;BME280;42558;52.388;13.390;2023-06-19T02:18:38;100849.89;;;15.09;100.00
56681;BME280;42558;52.388;13.390;2023-06-19T02:21:08;100851.31;;;15.07;100.00
56681;BME280;42558;52.388;13.390;2023-06-19T02:23:38;100851.68;;;15.02;100.00
56681;BME280;42558;52.388;13.390;2023-06-19T02:26:08;100849.21;;;14.97;100.00
56681;BME280;42558;52.388;13.390;2023-06-19T02:28:38;100849.59;;;14.94;100.00
56681;BME280;42558;52.388;13.390;2023-06-19T02:31:07;100844.83;;;14.88;100.00
56681;BME280;42558;52.388;13.390;2023-06-19T02:33:37;100840.92;;;14.84;100.00
56681;BME280;42558;52.388;13.390;2023-06-19T02:36:07;100845.17;;;14.83;100.00
56681;BME280;42558;52.388;13.390;2023-06-19T02:38:37;100840.05;;;14.82;100.00
56681;BME280;42558;52.388;13.390;2023-06-19T02:41:07;100839.89;;;14.79;100.00
56681;BME280;42558;52.388;13.390;2023-06-19T02:43:37;100834.75;;;14.77;100.00
56681;BME280;42558;52.388;13.390;2023-06-19T02:46:07;100833.16;;;14.76;100.00
56681;BME280;42558;52.388;13.390;2023-06-19T02:48:41;100832.46;;;14.75;100.00
56681;BME280;42558;52.388;13.390;2023-06-19T02:51:11;100838.47;;;14.75;100.00
56681;BME280;42558;52.388;13.390;2023-06-19T02:53:41;100838.83;;;14.78;100.00
56681;BME280;42558;52.388;13.390;2023-06-19T02:56:12;100835.45;;;14.82;100.00
56681;BME280;42558;52.388;13.390;2023-06-19T02:58:42;100835.43;;;14.88;100.00
56681;BME280;42558;52.388;13.390;2023-06-19T03:01:12;100837.55;;;14.93;100.00
56681;BME280;42558;52.388;13.390;2023-06-19T03:03:42;100837.55;;;14.94;100.00
56681;BME280;42558;52.388;13.390;2023-06-19T03:06:12;100834.89;;;14.94;100.00
56681;BME280;42558;52.388;13.390;2023-06-19T03:08:43;100835.40;;;15.00;100.00
56681;BME280;42558;52.388;13.390;2023-06-19T03:11:14;100834.14;;;15.07;100.00
56681;BME280;42558;52.388;13.390;2023-06-19T03:13:52;100831.81;;;15.11;100.00
56681;BME280;42558;52.388;13.390;2023-06-19T03:16:21;100835.86;;;15.17;100.00
56681;BME280;42558;52.388;13.390;2023-06-19T03:18:50;100836.04;;;15.21;100.00
56681;BME280;42558;52.388;13.390;2023-06-19T03:21:21;100839.20;;;15.27;100.00
56681;BME280;42558;52.388;13.390;2023-06-19T03:23:50;100838.98;;;15.34;100.00
56681;BME280;42558;52.388;13.390;2023-06-19T03:26:20;100844.81;;;15.39;100.00
56681;BME280;42558;52.388;13.390;2023-06-19T03:28:50;100847.79;;;15.43;100.00
56681;BME280;42558;52.388;13.390;2023-06-19T03:31:20;100854.86;;;15.49;100.00
56681;BME280;42558;52.388;13.390;2023-06-19T03:33:50;100857.48;;;15.58;100.00
56681;BME280;42558;52.388;13.390;2023-06-19T03:36:20;100859.06;;;15.67;100.00
56681;BME280;42558;52.388;13.390;2023-06-19T03:38:53;100856.20;;;15.69;100.00
56681;BME280;42558;52.388;13.390;2023-06-19T03:41:25;100850.67;;;15.74;100.00
56681;BME280;42558;52.388;13.390;2023-06-19T03:43:55;100852.23;;;15.81;100.00
56681;BME280;42558;52.388;13.390;2023-06-19T03:46:23;100858.91;;;15.89;100.00
56681;BME280;42558;52.388;13.390;2023-06-19T03:48:52;100860.63;;;15.97;100.00
56681;BME280;42558;52.388;13.390;2023-06-19T03:51:20;100860.44;;;15.99;100.00
56681;BME280;42558;52.388;13.390;2023-06-19T03:53:49;100860.97;;;15.99;100.00
56681;BME280;42558;52.388;13.390;2023-06-19T03:56:17;100864.84;;;16.03;100.00
56681;BME280;42558;52.388;13.390;2023-06-19T03:58:47;100856.13;;;16.07;100.00
56681;BME280;42558;52.388;13.390;2023-06-19T04:01:15;100854.13;;;16.13;100.00
56681;BME280;42558;52.388;13.390;2023-06-19T04:03:45;100851.58;;;16.21;100.00
56681;BME280;42558;52.388;13.390;2023-06-19T04:06:14;100849.23;;;16.25;100.00
56681;BME280;42558;52.388;13.390;2023-06-19T04:08:44;100849.92;;;16.28;100.00
56681;BME280;42558;52.388;13.390;2023-06-19T04:11:14;100844.22;;;16.31;100.00
56681;BME280;42558;52.388;13.390;2023-06-19T04:13:44;100838.52;;;16.34;100.00
56681;BME280;42558;52.388;13.390;2023-06-19T04:16:13;100831.04;;;16.36;99.93
56681;BME280;42558;52.388;13.390;2023-06-19T04:18:43;100824.64;;;16.39;99.71
56681;BME280;42558;52.388;13.390;2023-06-19T04:21:14;100820.49;;;16.45;99.91
56681;BME280;42558;52.388;13.390;2023-06-19T04:23:43;100822.95;;;16.47;99.27
56681;BME280;42558;52.388;13.390;2023-06-19T04:26:12;100829.31;;;16.50;99.08
56681;BME280;42558;52.388;13.390;2023-06-19T04:28:42;100836.17;;;16.57;99.00
56681;BME280;42558;52.388;13.390;2023-06-19T04:31:12;100838.29;;;16.59;98.41
56681;BME280;42558;52.388;13.390;2023-06-19T04:33:42;100838.96;;;16.61;97.69
56681;BME280;42558;52.388;13.390;2023-06-19T04:36:12;100832.88;;;16.68;98.06
56681;BME280;42558;52.388;13.390;2023-06-19T04:38:42;100834.77;;;16.75;98.48
56681;BME280;42558;52.388;13.390;2023-06-19T04:41:12;100843.10;;;16.77;98.09
56681;BME280;42558;52.388;13.390;2023-06-19T04:43:42;100848.94;;;16.79;97.61
56681;BME280;42558;52.388;13.390;2023-06-19T04:46:12;100848.36;;;16.83;97.67
56681;BME280;42558;52.388;13.390;2023-06-19T04:48:42;100851.91;;;16.83;97.31
56681;BME280;42558;52.388;13.390;2023-06-19T04:51:11;100853.14;;;16.85;96.36
56681;BME280;42558;52.388;13.390;2023-06-19T04:53:41;100852.20;;;16.89;95.61
56681;BME280;42558;52.388;13.390;2023-06-19T04:56:10;100854.13;;;16.92;95.28
56681;BME280;42558;52.388;13.390;2023-06-19T04:58:41;100861.17;;;16.97;95.47
56681;BME280;42558;52.388;13.390;2023-06-19T05:01:16;100861.88;;;17.00;95.88
56681;BME280;42558;52.388;13.390;2023-06-19T05:03:45;100860.98;;;17.00;96.52
56681;BME280;42558;52.388;13.390;2023-06-19T05:06:15;100864.71;;;16.98;95.97
56681;BME280;42558;52.388;13.390;2023-06-19T05:08:44;100868.48;;;16.96;95.70
56681;BME280;42558;52.388;13.390;2023-06-19T05:11:12;100874.84;;;16.97;96.41
56681;BME280;42558;52.388;13.390;2023-06-19T05:13:42;100878.02;;;17.01;96.37
56681;BME280;42558;52.388;13.390;2023-06-19T05:16:12;100880.66;;;17.02;96.21
56681;BME280;42558;52.388;13.390;2023-06-19T05:18:44;100880.07;;;17.07;96.10
56681;BME280;42558;52.388;13.390;2023-06-19T05:21:12;100879.85;;;17.11;95.87
56681;BME280;42558;52.388;13.390;2023-06-19T05:23:41;100882.44;;;17.19;95.97
56681;BME280;42558;52.388;13.390;2023-06-19T05:26:09;100883.31;;;17.18;94.44
56681;BME280;42558;52.388;13.390;2023-06-19T05:28:38;100883.50;;;17.20;94.78
56681;BME280;42558;52.388;13.390;2023-06-19T05:31:06;100882.94;;;17.22;94.56
56681;BME280;42558;52.388;13.390;2023-06-19T05:33:35;100877.70;;;17.27;94.89
56681;BME280;42558;52.388;13.390;2023-06-19T05:36:04;100879.44;;;17.30;94.51
56681;BME280;42558;52.388;13.390;2023-06-19T05:38:32;100878.53;;;17.33;94.57
56681;BME280;42558;52.388;13.390;2023-06-19T05:41:02;100876.71;;;17.36;94.41
56681;BME280;42558;52.388;13.390;2023-06-19T05:43:32;100872.56;;;17.41;94.18
56681;BME280;42558;52.388;13.390;2023-06-19T05:46:00;100879.02;;;17.49;93.85
56681;BME280;42558;52.388;13.390;2023-06-19T05:48:31;100876.63;;;17.56;93.17
56681;BME280;42558;52.388;13.390;2023-06-19T05:51:01;100877.84;;;17.59;92.70
56681;BME280;42558;52.388;13.390;2023-06-19T05:53:31;100875.27;;;17.65;92.63
56681;BME280;42558;52.388;13.390;2023-06-19T05:56:02;100875.41;;;17.68;91.96
56681;BME280;42558;52.388;13.390;2023-06-19T05:58:32;100866.63;;;17.75;91.76
56681;BME280;42558;52.388;13.390;2023-06-19T06:01:02;100865.48;;;17.81;91.68
56681;BME280;42558;52.388;13.390;2023-06-19T06:03:32;100862.96;;;17.82;91.17
56681;BME280;42558;52.388;13.390;2023-06-19T06:06:01;100862.47;;;17.92;90.71
56681;BME280;42558;52.388;13.390;2023-06-19T06:08:32;100866.09;;;18.00;90.33
56681;BME280;42558;52.388;13.390;2023-06-19T06:11:00;100872.40;;;18.05;90.18
56681;BME280;42558;52.388;13.390;2023-06-19T06:13:30;100876.73;;;18.13;90.31
56681;BME280;42558;52.388;13.390;2023-06-19T06:15:58;100878.89;;;18.22;90.39
56681;BME280;42558;52.388;13.390;2023-06-19T06:18:28;100873.15;;;18.27;89.60
56681;BME280;42558;52.388;13.390;2023-06-19T06:20:58;100871.64;;;18.31;89.77
56681;BME280;42558;52.388;13.390;2023-06-19T06:23:28;100869.77;;;18.36;89.28
56681;BME280;42558;52.388;13.390;2023-06-19T06:25:57;100862.98;;;18.47;89.93
56681;BME280;42558;52.388;13.390;2023-06-19T06:28:31;100868.15;;;18.47;87.33
56681;BME280;42558;52.388;13.390;2023-06-19T06:30:59;100871.32;;;18.50;86.69
56681;BME280;42558;52.388;13.390;2023-06-19T06:33:29;100872.13;;;18.55;86.66
56681;BME280;42558;52.388;13.390;2023-06-19T06:35:58;100873.77;;;18.63;86.39
56681;BME280;42558;52.388;13.390;2023-06-19T06:38:29;100874.73;;;18.70;86.18
56681;BME280;42558;52.388;13.390;2023-06-19T06:40:57;100877.41;;;18.70;85.80
56681;BME280;42558;52.388;13.390;2023-06-19T06:43:27;100878.77;;;18.74;85.63
56681;BME280;42558;52.388;13.390;2023-06-19T06:45:57;100881.70;;;18.88;86.71
56681;BME280;42558;52.388;13.390;2023-06-19T06:48:27;100884.23;;;18.97;85.72
56681;BME280;42558;52.388;13.390;2023-06-19T06:50:56;100885.35;;;19.02;85.29
56681;BME280;42558;52.388;13.390;2023-06-19T06:53:29;100886.00;;;19.06;84.86
56681;BME280;42558;52.388;13.390;2023-06-19T06:56:00;100883.72;;;19.04;84.68
56681;BME280;42558;52.388;13.390;2023-06-19T06:58:29;100885.62;;;19.16;85.08
56681;BME280;42558;52.388;13.390;2023-06-19T07:00:57;100884.34;;;19.27;84.45
56681;BME280;42558;52.388;13.390;2023-06-19T07:03:25;100883.18;;;19.31;83.40
56681;BME280;42558;52.388;13.390;2023-06-19T07:05:55;100889.20;;;19.33;83.17
56681;BME280;42558;52.388;13.390;2023-06-19T07:08:25;100892.46;;;19.49;84.37
56681;BME280;42558;52.388;13.390;2023-06-19T07:10:55;100889.25;;;19.75;84.58
56681;BME280;42558;52.388;13.390;2023-06-19T07:13:25;100885.34;;;19.81;82.38
56681;BME280;42558;52.388;13.390;2023-06-19T07:15:54;100885.05;;;19.79;82.91
56681;BME280;42558;52.388;13.390;2023-06-19T07:18:23;100882.14;;;19.81;82.67
56681;BME280;42558;52.388;13.390;2023-06-19T07:20:52;100884.61;;;19.98;81.99
56681;BME280;42558;52.388;13.390;2023-06-19T07:23:22;100888.28;;;20.17;81.42
56681;BME280;42558;52.388;13.390;2023-06-19T07:25:52;100888.65;;;20.37;80.82
56681;BME280;42558;52.388;13.390;2023-06-19T07:28:22;100883.52;;;20.29;80.06
56681;BME280;42558;52.388;13.390;2023-06-19T07:30:51;100883.98;;;20.55;79.70
56681;BME280;42558;52.388;13.390;2023-06-19T07:33:21;100882.84;;;20.71;79.23
56681;BME280;42558;52.388;13.390;2023-06-19T07:35:49;100886.79;;;20.78;77.48
56681;BME280;42558;52.388;13.390;2023-06-19T07:38:19;100886.02;;;20.86;74.89
56681;BME280;42558;52.388;13.390;2023-06-19T07:40:49;100886.33;;;21.08;75.69
56681;BME280;42558;52.388;13.390;2023-06-19T07:43:17;100888.70;;;21.18;75.09
56681;BME280;42558;52.388;13.390;2023-06-19T07:45:47;100887.45;;;21.18;74.46
56681;BME280;42558;52.388;13.390;2023-06-19T07:48:17;100880.99;;;21.25;74.55
56681;BME280;42558;52.388;13.390;2023-06-19T07:50:47;100886.27;;;21.35;73.98
56681;BME280;42558;52.388;13.390;2023-06-19T07:53:14;100883.34;;;21.38;72.61
56681;BME280;42558;52.388;13.390;2023-06-19T07:55:44;100882.29;;;21.30;71.98
56681;BME280;42558;52.388;13.390;2023-06-19T07:58:14;100887.35;;;21.53;71.99
56681;BME280;42558;52.388;13.390;2023-06-19T08:00:44;100887.60;;;21.63;71.89
56681;BME280;42558;52.388;13.390;2023-06-19T08:03:14;100888.31;;;21.69;71.14
56681;BME280;42558;52.388;13.390;2023-06-19T08:05:44;100885.45;;;21.87;70.20
56681;BME280;42558;52.388;13.390;2023-06-19T08:08:14;100881.98;;;21.84;70.38
56681;BME280;42558;52.388;13.390;2023-06-19T08:10:44;100882.71;;;21.88;70.64
56681;BME280;42558;52.388;13.390;2023-06-19T08:13:14;100883.44;;;21.82;70.26
56681;BME280;42558;52.388;13.390;2023-06-19T08:15:44;100886.12;;;21.88;69.22
56681;BME280;42558;52.388;13.390;2023-06-19T08:18:14;100885.55;;;22.07;70.92
56681;BME280;42558;52.388;13.390;2023-06-19T08:20:44;100883.14;;;22.15;69.70
56681;BME280;42558;52.388;13.390;2023-06-19T08:23:14;100882.12;;;22.24;70.56
56681;BME280;42558;52.388;13.390;2023-06-19T08:25:44;100883.38;;;22.30;69.51
56681;BME280;42558;52.388;13.390;2023-06-19T08:28:14;100892.66;;;22.36;70.79
56681;BME280;42558;52.388;13.390;2023-06-19T08:30:45;100892.05;;;22.39;70.24
56681;BME280;42558;52.388;13.390;2023-06-19T08:33:15;100898.45;;;22.29;70.66
56681;BME280;42558;52.388;13.390;2023-06-19T08:35:45;100902.43;;;22.05;70.84
56681;BME280;42558;52.388;13.390;2023-06-19T08:38:17;100898.68;;;21.98;72.40
56681;BME280;42558;52.388;13.390;2023-06-19T08:40:47;100893.92;;;22.08;72.64
56681;BME280;42558;52.388;13.390;2023-06-19T08:43:15;100891.09;;;22.13;72.85
56681;BME280;42558;52.388;13.390;2023-06-19T08:46:18;100889.59;;;22.26;72.10
56681;BME280;42558;52.388;13.390;2023-06-19T08:48:49;100889.59;;;22.26;71.83
56681;BME280;42558;52.388;13.390;2023-06-19T08:51:18;100887.35;;;22.18;72.55
56681;BME280;42558;52.388;13.390;2023-06-19T08:53:53;100885.23;;;22.11;72.68
56681;BME280;42558;52.388;13.390;2023-06-19T08:56:22;100883.05;;;22.24;72.07
56681;BME280;42558;52.388;13.390;2023-06-19T08:58:50;100883.69;;;22.26;71.09
56681;BME280;42558;52.388;13.390;2023-06-19T09:01:19;100890.61;;;22.33;71.06
56681;BME280;42558;52.388;13.390;2023-06-19T09:03:47;100889.12;;;22.40;70.58
56681;BME280;42558;52.388;13.390;2023-06-19T09:06:22;100892.10;;;22.31;71.54
56681;BME280;42558;52.388;13.390;2023-06-19T09:09:00;100890.04;;;22.45;70.85
56681;BME280;42558;52.388;13.390;2023-06-19T09:11:30;100891.96;;;22.52;71.36
56681;BME280;42558;52.388;13.390;2023-06-19T09:13:58;100893.85;;;22.49;70.91
56681;BME280;42558;52.388;13.390;2023-06-19T09:16:40;100891.20;;;22.48;71.26
56681;BME280;42558;52.388;13.390;2023-06-19T09:19:11;100891.48;;;22.50;71.22
56681;BME280;42558;52.388;13.390;2023-06-19T09:21:49;100891.63;;;22.62;71.22
56681;BME280;42558;52.388;13.390;2023-06-19T09:24:19;100893.05;;;22.57;69.38
56681;BME280;42558;52.388;13.390;2023-06-19T09:26:50;100893.64;;;22.50;69.04
56681;BME280;42558;52.388;13.390;2023-06-19T09:29:21;100892.63;;;22.59;70.90
56681;BME280;42558;52.388;13.390;2023-06-19T09:31:51;100898.54;;;22.74;70.65
56681;BME280;42558;52.388;13.390;2023-06-19T09:34:21;100902.19;;;22.83;69.52
56681;BME280;42558;52.388;13.390;2023-06-19T09:36:51;100905.63;;;22.72;69.90
56681;BME280;42558;52.388;13.390;2023-06-19T09:39:24;100908.75;;;22.86;70.92
56681;BME280;42558;52.388;13.390;2023-06-19T09:41:58;100908.48;;;22.72;71.68
56681;BME280;42558;52.388;13.390;2023-06-19T09:44:39;100909.69;;;22.64;71.98
56681;BME280;42558;52.388;13.390;2023-06-19T09:47:22;100906.41;;;22.59;71.99
56681;BME280;42558;52.388;13.390;2023-06-19T09:49:55;100905.09;;;22.62;70.60
56681;BME280;42558;52.388;13.390;2023-06-19T09:52:24;100895.23;;;22.61;69.66
56681;BME280;42558;52.388;13.390;2023-06-19T09:54:53;100888.33;;;22.79;70.53
56681;BME280;42558;52.388;13.390;2023-06-19T09:57:24;100887.39;;;22.81;68.96
56681;BME280;42558;52.388;13.390;2023-06-19T09:59:55;100881.04;;;22.82;70.09
56681;BME280;42558;52.388;13.390;2023-06-19T10:02:30;100872.77;;;22.89;69.45
56681;BME280;42558;52.388;13.390;2023-06-19T10:05:00;100869.17;;;22.85;69.40
56681;BME280;42558;52.388;13.390;2023-06-19T10:07:35;100873.38;;;22.92;68.93
56681;BME280;42558;52.388;13.390;2023-06-19T10:10:23;100870.80;;;22.84;68.98
56681;BME280;42558;52.388;13.390;2023-06-19T10:13:00;100867.50;;;22.80;69.64
56681;BME280;42558;52.388;13.390;2023-06-19T10:15:44;100859.73;;;22.87;68.95
56681;BME280;42558;52.388;13.390;2023-06-19T10:18:17;100859.69;;;22.94;69.60
56681;BME280;42558;52.388;13.390;2023-06-19T10:20:47;100858.22;;;22.95;68.17
56681;BME280;42558;52.388;13.390;2023-06-19T10:23:24;100856.58;;;23.11;68.07
56681;BME280;42558;52.388;13.390;2023-06-19T10:28:25;100854.52;;;23.51;67.80
56681;BME280;42558;52.388;13.390;2023-06-19T10:30:59;100853.09;;;23.56;66.68
56681;BME280;42558;52.388;13.390;2023-06-19T10:33:32;100851.52;;;23.49;66.53
56681;BME280;42558;52.388;13.390;2023-06-19T10:36:18;100847.23;;;23.64;66.33
56681;BME280;42558;52.388;13.390;2023-06-19T10:38:48;100845.52;;;23.52;67.23
56681;BME280;42558;52.388;13.390;2023-06-19T10:41:22;100839.23;;;23.57;65.66
56681;BME280;42558;52.388;13.390;2023-06-19T10:46:29;100828.14;;;23.74;65.54
56681;BME280;42558;52.388;13.390;2023-06-19T10:49:00;100821.89;;;23.59;65.04
56681;BME280;42558;52.388;13.390;2023-06-19T10:51:36;100823.86;;;23.65;64.34
56681;BME280;42558;52.388;13.390;2023-06-19T10:54:07;100819.05;;;23.54;64.44
56681;BME280;42558;52.388;13.390;2023-06-19T10:56:37;100818.54;;;23.90;65.51
56681;BME280;42558;52.388;13.390;2023-06-19T10:59:09;100825.94;;;24.15;63.90
56681;BME280;42558;52.388;13.390;2023-06-19T11:01:46;100828.30;;;24.32;63.08
56681;BME280;42558;52.388;13.390;2023-06-19T11:04:16;100821.09;;;24.53;62.82
56681;BME280;42558;52.388;13.390;2023-06-19T11:06:46;100818.11;;;24.60;62.77
56681;BME280;42558;52.388;13.390;2023-06-19T11:09:17;100817.19;;;24.31;62.13
56681;BME280;42558;52.388;13.390;2023-06-19T11:11:49;100815.95;;;24.48;63.35
56681;BME280;42558;52.388;13.390;2023-06-19T11:14:19;100810.54;;;24.36;61.12
56681;BME280;42558;52.388;13.390;2023-06-19T11:16:49;100804.20;;;24.32;60.88
56681;BME280;42558;52.388;13.390;2023-06-19T11:19:21;100809.22;;;24.11;60.66
56681;BME280;42558;52.388;13.390;2023-06-19T11:21:52;100807.98;;;24.24;61.41
56681;BME280;42558;52.388;13.390;2023-06-19T11:24:24;100805.55;;;24.43;60.98
56681;BME280;42558;52.388;13.390;2023-06-19T11:26:52;100801.19;;;24.36;60.85
56681;BME280;42558;52.388;13.390;2023-06-19T11:29:31;100796.21;;;24.34;61.38
56681;BME280;42558;52.388;13.390;2023-06-19T11:32:14;100799.61;;;24.39;61.22
56681;BME280;42558;52.388;13.390;2023-06-19T11:34:44;100799.55;;;24.10;59.48
56681;BME280;42558;52.388;13.390;2023-06-19T11:37:16;100796.91;;;24.26;60.78
56681;BME280;42558;52.388;13.390;2023-06-19T11:39:50;100797.35;;;24.46;59.62
56681;BME280;42558;52.388;13.390;2023-06-19T11:42:20;100798.02;;;24.63;60.19
56681;BME280;42558;52.388;13.390;2023-06-19T11:45:02;100801.61;;;24.47;59.10
56681;BME280;42558;52.388;13.390;2023-06-19T11:47:34;100807.41;;;24.33;58.64
56681;BME280;42558;52.388;13.390;2023-06-19T11:50:06;100805.80;;;24.50;59.00
56681;BME280;42558;52.388;13.390;2023-06-19T11:52:36;100804.72;;;24.46;57.66
56681;BME280;42558;52.388;13.390;2023-06-19T11:55:07;100804.08;;;24.61;58.39
56681;BME280;42558;52.388;13.390;2023-06-19T11:57:38;100804.44;;;24.77;57.30
56681;BME280;42558;52.388;13.390;2023-06-19T12:00:15;100806.69;;;24.95;57.74
56681;BME280;42558;52.388;13.390;2023-06-19T12:02:46;100805.48;;;25.13;57.14
56681;BME280;42558;52.388;13.390;2023-06-19T12:05:16;100806.11;;;25.50;56.89
56681;BME280;42558;52.388;13.390;2023-06-19T12:07:47;100801.60;;;25.69;56.24
56681;BME280;42558;52.388;13.390;2023-06-19T12:10:17;100800.78;;;25.49;56.59
56681;BME280;42558;52.388;13.390;2023-06-19T12:12:47;100797.95;;;25.78;55.84
56681;BME280;42558;52.388;13.390;2023-06-19T12:15:17;100795.42;;;26.15;55.92
56681;BME280;42558;52.388;13.390;2023-06-19T12:17:46;100788.54;;;26.61;55.40
56681;BME280;42558;52.388;13.390;2023-06-19T12:20:17;100786.55;;;26.58;54.03
56681;BME280;42558;52.388;13.390;2023-06-19T12:22:47;100779.91;;;26.57;54.03
56681;BME280;42558;52.388;13.390;2023-06-19T12:25:17;100780.83;;;26.50;53.58
56681;BME280;42558;52.388;13.390;2023-06-19T12:27:47;100779.83;;;26.41;54.55
56681;BME280;42558;52.388;13.390;2023-06-19T12:30:23;100777.80;;;26.27;53.10
56681;BME280;42558;52.388;13.390;2023-06-19T12:32:53;100780.11;;;26.46;54.23
56681;BME280;42558;52.388;13.390;2023-06-19T12:35:23;100781.13;;;26.71;54.06
56681;BME280;42558;52.388;13.390;2023-06-19T12:37:52;100778.99;;;26.77;52.98
56681;BME280;42558;52.388;13.390;2023-06-19T12:40:22;100776.54;;;26.49;53.02
56681;BME280;42558;52.388;13.390;2023-06-19T12:42:53;100777.09;;;26.49;52.91
56681;BME280;42558;52.388;13.390;2023-06-19T12:45:23;100778.50;;;26.49;53.32
56681;BME280;42558;52.388;13.390;2023-06-19T12:47:53;100775.98;;;26.73;51.89
56681;BME280;42558;52.388;13.390;2023-06-19T12:50:23;100775.14;;;26.82;53.52
56681;BME280;42558;52.388;13.390;2023-06-19T12:52:53;100773.29;;;26.63;51.65
56681;BME280;42558;52.388;13.390;2023-06-19T12:55:23;100768.61;;;26.45;53.62
56681;BME280;42558;52.388;13.390;2023-06-19T12:57:53;100767.77;;;26.61;52.94
56681;BME280;42558;52.388;13.390;2023-06-19T13:00:23;100760.21;;;26.85;53.10
56681;BME280;42558;52.388;13.390;2023-06-19T13:02:52;100755.82;;;27.19;52.49